sensor_id;sensor_type;location;lat;lon;timestamp;P1;durP1;ratioP1;P2;durP2;ratioP2
57433;SDS011;43277;52.672;6.984;2023-02-02T00:01:34;35.42;;;6.85;;
57433;SDS011;43277;52.672;6.984;2023-02-02T00:03:59;31.10;;;6.55;;
57433;SDS011;43277;52.672;6.984;2023-02-02T00:06:26;31.13;;;6.80;;
57433;SDS011;43277;52.672;6.984;2023-02-02T00:08:54;35.20;;;7.40;;
57433;SDS011;43277;52.672;6.984;2023-02-02T00:11:22;29.88;;;5.93;;
57433;SDS011;43277;52.672;6.984;2023-02-02T00:13:48;35.15;;;6.38;;
57433;SDS011;43277;52.672;6.984;2023-02-02T00:18:55;31.95;;;3.90;;
57433;SDS011;43277;52.672;6.984;2023-02-02T00:21:23;33.53;;;6.20;;
57433;SDS011;43277;52.672;6.984;2023-02-02T00:23:49;32.05;;;5.85;;
57433;SDS011;43277;52.672;6.984;2023-02-02T00:26:15;30.58;;;6.47;;
57433;SDS011;43277;52.672;6.984;2023-02-02T00:28:41;32.75;;;6.20;;
57433;SDS011;43277;52.672;6.984;2023-02-02T00:31:07;26.80;;;5.82;;
57433;SDS011;43277;52.672;6.984;2023-02-02T00:33:33;32.55;;;5.90;;
57433;SDS011;43277;52.672;6.984;2023-02-02T00:35:59;32.13;;;6.07;;
57433;SDS011;43277;52.672;6.984;2023-02-02T00:38:24;31.35;;;5.70;;
57433;SDS011;43277;52.672;6.984;2023-02-02T00:40:50;35.33;;;6.47;;
57433;SDS011;43277;52.672;6.984;2023-02-02T00:43:16;33.25;;;6.28;;
57433;SDS011;43277;52.672;6.984;2023-02-02T00:45:41;30.02;;;5.90;;
57433;SDS011;43277;52.672;6.984;2023-02-02T00:48:07;32.15;;;6.28;;
57433;SDS011;43277;52.672;6.984;2023-02-02T00:50:34;28.52;;;3.47;;
57433;SDS011;43277;52.672;6.984;2023-02-02T00:53:00;33.08;;;6.15;;
57433;SDS011;43277;52.672;6.984;2023-02-02T00:55:26;35.13;;;5.22;;
57433;SDS011;43277;52.672;6.984;2023-02-02T00:57:52;28.33;;;5.78;;
57433;SDS011;43277;52.672;6.984;2023-02-02T01:00:19;27.45;;;5.88;;
57433;SDS011;43277;52.672;6.984;2023-02-02T01:02:47;24.88;;;5.38;;
57433;SDS011;43277;52.672;6.984;2023-02-02T01:05:14;32.22;;;5.30;;
57433;SDS011;43277;52.672;6.984;2023-02-02T01:07:40;31.35;;;5.32;;
57433;SDS011;43277;52.672;6.984;2023-02-02T01:10:06;31.42;;;5.75;;
57433;SDS011;43277;52.672;6.984;2023-02-02T01:12:36;26.60;;;3.75;;
57433;SDS011;43277;52.672;6.984;2023-02-02T01:15:02;28.00;;;5.28;;
57433;SDS011;43277;52.672;6.984;2023-02-02T01:17:28;28.98;;;5.57;;
57433;SDS011;43277;52.672;6.984;2023-02-02T01:19:53;32.83;;;6.13;;
57433;SDS011;43277;52.672;6.984;2023-02-02T01:22:19;30.08;;;5.65;;
57433;SDS011;43277;52.672;6.984;2023-02-02T01:24:44;29.20;;;5.00;;
57433;SDS011;43277;52.672;6.984;2023-02-02T01:27:10;29.55;;;6.20;;
57433;SDS011;43277;52.672;6.984;2023-02-02T01:29:36;28.48;;;5.22;;
57433;SDS011;43277;52.672;6.984;2023-02-02T01:32:01;29.25;;;5.97;;
57433;SDS011;43277;52.672;6.984;2023-02-02T01:34:27;26.50;;;5.20;;
57433;SDS011;43277;52.672;6.984;2023-02-02T01:36:53;35.15;;;5.97;;
57433;SDS011;43277;52.672;6.984;2023-02-02T01:39:19;28.45;;;5.45;;
57433;SDS011;43277;52.672;6.984;2023-02-02T01:41:44;24.95;;;5.57;;
57433;SDS011;43277;52.672;6.984;2023-02-02T01:47:13;34.15;;;6.30;;
57433;SDS011;43277;52.672;6.984;2023-02-02T01:49:39;30.85;;;6.03;;
57433;SDS011;43277;52.672;6.984;2023-02-02T01:52:06;28.85;;;5.43;;
57433;SDS011;43277;52.672;6.984;2023-02-02T01:54:35;30.67;;;5.45;;
57433;SDS011;43277;52.672;6.984;2023-02-02T01:57:12;30.35;;;5.88;;
57433;SDS011;43277;52.672;6.984;2023-02-02T01:59:42;29.33;;;5.63;;
57433;SDS011;43277;52.672;6.984;2023-02-02T02:02:11;29.70;;;5.30;;
57433;SDS011;43277;52.672;6.984;2023-02-02T02:04:37;27.85;;;5.07;;
57433;SDS011;43277;52.672;6.984;2023-02-02T02:07:03;28.08;;;5.28;;
57433;SDS011;43277;52.672;6.984;2023-02-02T02:09:30;35.30;;;6.18;;
57433;SDS011;43277;52.672;6.984;2023-02-02T02:11:55;35.75;;;6.70;;
57433;SDS011;43277;52.672;6.984;2023-02-02T02:14:21;26.58;;;5.40;;
57433;SDS011;43277;52.672;6.984;2023-02-02T02:23:24;30.33;;;5.80;;
57433;SDS011;43277;52.672;6.984;2023-02-02T02:29:14;32.20;;;5.50;;
57433;SDS011;43277;52.672;6.984;2023-02-02T02:43:02;32.20;;;6.65;;
57433;SDS011;43277;52.672;6.984;2023-02-02T02:45:55;30.23;;;5.93;;
57433;SDS011;43277;52.672;6.984;2023-02-02T02:48:21;33.63;;;5.72;;
57433;SDS011;43277;52.672;6.984;2023-02-02T02:50:47;36.90;;;5.82;;
57433;SDS011;43277;52.672;6.984;2023-02-02T02:53:14;31.58;;;6.18;;
57433;SDS011;43277;52.672;6.984;2023-02-02T02:58:35;34.75;;;6.70;;
57433;SDS011;43277;52.672;6.984;2023-02-02T03:06:50;32.10;;;6.20;;
57433;SDS011;43277;52.672;6.984;2023-02-02T03:09:22;37.65;;;6.88;;
57433;SDS011;43277;52.672;6.984;2023-02-02T03:11:53;30.23;;;6.30;;
57433;SDS011;43277;52.672;6.984;2023-02-02T03:14:20;31.83;;;6.25;;
57433;SDS011;43277;52.672;6.984;2023-02-02T03:16:45;34.97;;;6.45;;
57433;SDS011;43277;52.672;6.984;2023-02-02T03:19:11;36.85;;;6.30;;
57433;SDS011;43277;52.672;6.984;2023-02-02T03:21:37;29.77;;;5.78;;
57433;SDS011;43277;52.672;6.984;2023-02-02T03:24:02;28.88;;;6.43;;
57433;SDS011;43277;52.672;6.984;2023-02-02T03:26:28;32.53;;;6.25;;
57433;SDS011;43277;52.672;6.984;2023-02-02T03:28:54;32.40;;;5.70;;
57433;SDS011;43277;52.672;6.984;2023-02-02T03:31:21;26.75;;;5.50;;
57433;SDS011;43277;52.672;6.984;2023-02-02T03:33:48;30.05;;;5.07;;
57433;SDS011;43277;52.672;6.984;2023-02-02T03:36:13;23.48;;;5.10;;
57433;SDS011;43277;52.672;6.984;2023-02-02T03:38:39;23.60;;;4.63;;
57433;SDS011;43277;52.672;6.984;2023-02-02T03:41:05;23.13;;;4.60;;
57433;SDS011;43277;52.672;6.984;2023-02-02T03:43:31;21.80;;;4.50;;
57433;SDS011;43277;52.672;6.984;2023-02-02T03:45:57;20.60;;;4.15;;
57433;SDS011;43277;52.672;6.984;2023-02-02T03:48:24;23.75;;;4.30;;
57433;SDS011;43277;52.672;6.984;2023-02-02T03:50:50;17.05;;;3.65;;
57433;SDS011;43277;52.672;6.984;2023-02-02T03:53:16;21.00;;;4.07;;
57433;SDS011;43277;52.672;6.984;2023-02-02T03:55:41;18.45;;;3.67;;
57433;SDS011;43277;52.672;6.984;2023-02-02T03:58:07;12.52;;;2.80;;
57433;SDS011;43277;52.672;6.984;2023-02-02T04:00:33;18.25;;;3.15;;
57433;SDS011;43277;52.672;6.984;2023-02-02T04:02:58;16.25;;;3.17;;
57433;SDS011;43277;52.672;6.984;2023-02-02T04:05:24;13.63;;;3.13;;
57433;SDS011;43277;52.672;6.984;2023-02-02T04:07:50;18.48;;;2.80;;
57433;SDS011;43277;52.672;6.984;2023-02-02T04:10:16;15.63;;;2.58;;
57433;SDS011;43277;52.672;6.984;2023-02-02T04:12:42;17.65;;;3.13;;
57433;SDS011;43277;52.672;6.984;2023-02-02T04:15:07;13.73;;;2.75;;
57433;SDS011;43277;52.672;6.984;2023-02-02T04:17:34;16.35;;;2.65;;
57433;SDS011;43277;52.672;6.984;2023-02-02T04:20:00;15.35;;;2.72;;
57433;SDS011;43277;52.672;6.984;2023-02-02T04:22:26;16.15;;;3.50;;
57433;SDS011;43277;52.672;6.984;2023-02-02T04:24:52;17.05;;;3.15;;
57433;SDS011;43277;52.672;6.984;2023-02-02T04:27:17;21.20;;;3.85;;
57433;SDS011;43277;52.672;6.984;2023-02-02T04:29:43;18.83;;;3.10;;
57433;SDS011;43277;52.672;6.984;2023-02-02T04:32:09;13.68;;;2.72;;
57433;SDS011;43277;52.672;6.984;2023-02-02T04:34:34;15.25;;;2.60;;
57433;SDS011;43277;52.672;6.984;2023-02-02T04:37:00;20.00;;;3.65;;
57433;SDS011;43277;52.672;6.984;2023-02-02T04:39:26;17.13;;;2.70;;
57433;SDS011;43277;52.672;6.984;2023-02-02T04:41:51;20.27;;;3.10;;
57433;SDS011;43277;52.672;6.984;2023-02-02T04:44:17;16.50;;;3.13;;
57433;SDS011;43277;52.672;6.984;2023-02-02T04:46:43;19.80;;;3.67;;
57433;SDS011;43277;52.672;6.984;2023-02-02T04:49:09;19.58;;;3.10;;
57433;SDS011;43277;52.672;6.984;2023-02-02T04:51:39;16.80;;;2.78;;
57433;SDS011;43277;52.672;6.984;2023-02-02T04:54:05;18.95;;;3.15;;
57433;SDS011;43277;52.672;6.984;2023-02-02T04:56:31;15.70;;;3.00;;
57433;SDS011;43277;52.672;6.984;2023-02-02T04:58:57;16.13;;;2.50;;
57433;SDS011;43277;52.672;6.984;2023-02-02T05:01:23;13.25;;;2.35;;
57433;SDS011;43277;52.672;6.984;2023-02-02T05:03:49;13.15;;;2.55;;
57433;SDS011;43277;52.672;6.984;2023-02-02T05:06:15;12.02;;;1.88;;
57433;SDS011;43277;52.672;6.984;2023-02-02T05:08:42;12.60;;;2.30;;
57433;SDS011;43277;52.672;6.984;2023-02-02T05:11:09;11.48;;;2.00;;
57433;SDS011;43277;52.672;6.984;2023-02-02T05:13:36;13.65;;;2.40;;
57433;SDS011;43277;52.672;6.984;2023-02-02T05:16:01;11.32;;;1.98;;
57433;SDS011;43277;52.672;6.984;2023-02-02T05:18:27;11.23;;;1.85;;
57433;SDS011;43277;52.672;6.984;2023-02-02T05:20:53;8.35;;;1.65;;
57433;SDS011;43277;52.672;6.984;2023-02-02T05:23:19;14.50;;;2.40;;
57433;SDS011;43277;52.672;6.984;2023-02-02T05:25:50;11.30;;;1.95;;
57433;SDS011;43277;52.672;6.984;2023-02-02T05:28:17;9.32;;;1.45;;
57433;SDS011;43277;52.672;6.984;2023-02-02T05:30:42;13.02;;;2.20;;
57433;SDS011;43277;52.672;6.984;2023-02-02T05:33:08;13.85;;;2.00;;
57433;SDS011;43277;52.672;6.984;2023-02-02T05:35:34;12.73;;;2.03;;
57433;SDS011;43277;52.672;6.984;2023-02-02T05:37:59;12.02;;;2.15;;
57433;SDS011;43277;52.672;6.984;2023-02-02T05:40:25;11.18;;;1.85;;
57433;SDS011;43277;52.672;6.984;2023-02-02T05:42:51;9.13;;;1.98;;
57433;SDS011;43277;52.672;6.984;2023-02-02T05:45:16;11.63;;;1.80;;
57433;SDS011;43277;52.672;6.984;2023-02-02T05:47:42;10.48;;;1.75;;
57433;SDS011;43277;52.672;6.984;2023-02-02T05:50:07;10.68;;;1.75;;
57433;SDS011;43277;52.672;6.984;2023-02-02T05:52:34;11.45;;;2.10;;
57433;SDS011;43277;52.672;6.984;2023-02-02T05:55:00;12.80;;;2.15;;
57433;SDS011;43277;52.672;6.984;2023-02-02T05:57:26;9.48;;;1.70;;
57433;SDS011;43277;52.672;6.984;2023-02-02T05:59:52;11.32;;;1.90;;
57433;SDS011;43277;52.672;6.984;2023-02-02T06:02:18;12.25;;;1.88;;
57433;SDS011;43277;52.672;6.984;2023-02-02T06:04:44;14.75;;;2.33;;
57433;SDS011;43277;52.672;6.984;2023-02-02T06:07:09;12.93;;;1.90;;
57433;SDS011;43277;52.672;6.984;2023-02-02T06:09:36;12.98;;;2.10;;
57433;SDS011;43277;52.672;6.984;2023-02-02T06:12:02;11.57;;;1.98;;
57433;SDS011;43277;52.672;6.984;2023-02-02T06:14:28;14.60;;;2.28;;
57433;SDS011;43277;52.672;6.984;2023-02-02T06:16:53;11.98;;;1.70;;
57433;SDS011;43277;52.672;6.984;2023-02-02T06:19:19;10.02;;;1.77;;
57433;SDS011;43277;52.672;6.984;2023-02-02T06:21:44;13.63;;;1.80;;
57433;SDS011;43277;52.672;6.984;2023-02-02T06:24:10;13.43;;;2.10;;
57433;SDS011;43277;52.672;6.984;2023-02-02T06:26:36;11.90;;;2.20;;
57433;SDS011;43277;52.672;6.984;2023-02-02T06:29:02;13.60;;;2.13;;
57433;SDS011;43277;52.672;6.984;2023-02-02T06:31:27;13.02;;;2.03;;
57433;SDS011;43277;52.672;6.984;2023-02-02T06:33:54;11.30;;;2.00;;
57433;SDS011;43277;52.672;6.984;2023-02-02T06:36:21;14.70;;;2.47;;
57433;SDS011;43277;52.672;6.984;2023-02-02T06:38:48;12.35;;;2.03;;
57433;SDS011;43277;52.672;6.984;2023-02-02T06:41:15;15.95;;;2.40;;
57433;SDS011;43277;52.672;6.984;2023-02-02T06:43:41;14.63;;;2.40;;
57433;SDS011;43277;52.672;6.984;2023-02-02T06:46:06;13.85;;;2.40;;
57433;SDS011;43277;52.672;6.984;2023-02-02T06:48:32;15.90;;;2.42;;
57433;SDS011;43277;52.672;6.984;2023-02-02T06:50:58;13.30;;;2.50;;
57433;SDS011;43277;52.672;6.984;2023-02-02T06:53:24;14.60;;;2.30;;
57433;SDS011;43277;52.672;6.984;2023-02-02T06:56:01;12.80;;;2.80;;
57433;SDS011;43277;52.672;6.984;2023-02-02T06:58:29;12.68;;;2.67;;
57433;SDS011;43277;52.672;6.984;2023-02-02T07:00:59;18.98;;;3.60;;
57433;SDS011;43277;52.672;6.984;2023-02-02T07:03:28;17.02;;;4.13;;
57433;SDS011;43277;52.672;6.984;2023-02-02T07:05:54;19.08;;;5.60;;
57433;SDS011;43277;52.672;6.984;2023-02-02T07:08:19;13.82;;;3.03;;
57433;SDS011;43277;52.672;6.984;2023-02-02T07:10:45;13.00;;;2.90;;
57433;SDS011;43277;52.672;6.984;2023-02-02T07:13:11;13.80;;;3.20;;
57433;SDS011;43277;52.672;6.984;2023-02-02T07:15:39;15.25;;;2.88;;
57433;SDS011;43277;52.672;6.984;2023-02-02T07:18:05;15.77;;;2.72;;
57433;SDS011;43277;52.672;6.984;2023-02-02T07:20:32;15.95;;;3.03;;
57433;SDS011;43277;52.672;6.984;2023-02-02T07:22:57;13.20;;;2.88;;
57433;SDS011;43277;52.672;6.984;2023-02-02T07:25:23;14.15;;;3.05;;
57433;SDS011;43277;52.672;6.984;2023-02-02T07:27:52;18.35;;;3.55;;
57433;SDS011;43277;52.672;6.984;2023-02-02T07:30:18;15.80;;;2.97;;
57433;SDS011;43277;52.672;6.984;2023-02-02T07:32:48;17.30;;;3.47;;
57433;SDS011;43277;52.672;6.984;2023-02-02T07:35:15;18.98;;;2.97;;
57433;SDS011;43277;52.672;6.984;2023-02-02T07:37:41;14.40;;;3.03;;
57433;SDS011;43277;52.672;6.984;2023-02-02T07:40:07;16.27;;;3.05;;
57433;SDS011;43277;52.672;6.984;2023-02-02T07:42:34;12.70;;;2.67;;
57433;SDS011;43277;52.672;6.984;2023-02-02T07:44:59;14.18;;;2.88;;
57433;SDS011;43277;52.672;6.984;2023-02-02T07:47:25;16.08;;;2.60;;
57433;SDS011;43277;52.672;6.984;2023-02-02T07:49:51;14.60;;;2.90;;
57433;SDS011;43277;52.672;6.984;2023-02-02T07:52:16;17.15;;;3.65;;
57433;SDS011;43277;52.672;6.984;2023-02-02T07:54:42;16.27;;;3.08;;
57433;SDS011;43277;52.672;6.984;2023-02-02T07:57:08;14.75;;;2.88;;
57433;SDS011;43277;52.672;6.984;2023-02-02T07:59:33;12.35;;;2.80;;
57433;SDS011;43277;52.672;6.984;2023-02-02T08:01:59;12.00;;;2.55;;
57433;SDS011;43277;52.672;6.984;2023-02-02T08:04:24;12.60;;;2.72;;
57433;SDS011;43277;52.672;6.984;2023-02-02T08:06:50;13.27;;;2.65;;
57433;SDS011;43277;52.672;6.984;2023-02-02T08:09:16;15.55;;;2.95;;
57433;SDS011;43277;52.672;6.984;2023-02-02T08:11:41;17.50;;;3.65;;
57433;SDS011;43277;52.672;6.984;2023-02-02T08:14:09;14.77;;;3.92;;
57433;SDS011;43277;52.672;6.984;2023-02-02T08:16:36;15.85;;;3.35;;
57433;SDS011;43277;52.672;6.984;2023-02-02T08:19:02;18.30;;;5.22;;
57433;SDS011;43277;52.672;6.984;2023-02-02T08:21:27;17.27;;;4.57;;
57433;SDS011;43277;52.672;6.984;2023-02-02T08:23:56;15.65;;;3.22;;
57433;SDS011;43277;52.672;6.984;2023-02-02T08:26:22;15.75;;;3.13;;
57433;SDS011;43277;52.672;6.984;2023-02-02T08:28:51;17.58;;;3.20;;
57433;SDS011;43277;52.672;6.984;2023-02-02T08:31:21;15.43;;;3.78;;
57433;SDS011;43277;52.672;6.984;2023-02-02T08:33:48;89.22;;;8.98;;
57433;SDS011;43277;52.672;6.984;2023-02-02T08:36:18;248.95;;;19.13;;
57433;SDS011;43277;52.672;6.984;2023-02-02T08:38:45;21.33;;;3.67;;
57433;SDS011;43277;52.672;6.984;2023-02-02T08:41:12;14.52;;;3.38;;
57433;SDS011;43277;52.672;6.984;2023-02-02T08:43:39;16.02;;;3.70;;
57433;SDS011;43277;52.672;6.984;2023-02-02T08:46:07;16.05;;;3.85;;
57433;SDS011;43277;52.672;6.984;2023-02-02T08:48:34;13.50;;;3.88;;
57433;SDS011;43277;52.672;6.984;2023-02-02T08:51:00;21.17;;;7.22;;
57433;SDS011;43277;52.672;6.984;2023-02-02T08:53:26;21.85;;;8.00;;
57433;SDS011;43277;52.672;6.984;2023-02-02T08:56:02;19.73;;;11.38;;
57433;SDS011;43277;52.672;6.984;2023-02-02T08:58:30;19.35;;;7.15;;
57433;SDS011;43277;52.672;6.984;2023-02-02T09:01:07;18.30;;;6.05;;
57433;SDS011;43277;52.672;6.984;2023-02-02T09:03:39;14.80;;;4.80;;
57433;SDS011;43277;52.672;6.984;2023-02-02T09:06:06;16.08;;;4.60;;
57433;SDS011;43277;52.672;6.984;2023-02-02T09:08:36;18.35;;;5.45;;
57433;SDS011;43277;52.672;6.984;2023-02-02T09:11:03;13.32;;;4.47;;
57433;SDS011;43277;52.672;6.984;2023-02-02T09:13:29;13.55;;;4.47;;
57433;SDS011;43277;52.672;6.984;2023-02-02T09:15:57;16.90;;;4.53;;
57433;SDS011;43277;52.672;6.984;2023-02-02T09:18:25;14.15;;;4.20;;
57433;SDS011;43277;52.672;6.984;2023-02-02T09:20:50;19.10;;;7.25;;
57433;SDS011;43277;52.672;6.984;2023-02-02T09:23:16;12.85;;;4.05;;
57433;SDS011;43277;52.672;6.984;2023-02-02T09:25:41;13.52;;;4.13;;
57433;SDS011;43277;52.672;6.984;2023-02-02T09:28:07;14.65;;;4.88;;
57433;SDS011;43277;52.672;6.984;2023-02-02T09:30:33;12.60;;;4.97;;
57433;SDS011;43277;52.672;6.984;2023-02-02T09:32:58;21.08;;;13.35;;
57433;SDS011;43277;52.672;6.984;2023-02-02T09:35:24;13.30;;;4.70;;
57433;SDS011;43277;52.672;6.984;2023-02-02T09:37:49;12.05;;;3.88;;
57433;SDS011;43277;52.672;6.984;2023-02-02T09:40:16;11.57;;;4.00;;
57433;SDS011;43277;52.672;6.984;2023-02-02T09:48:32;11.90;;;5.35;;
57433;SDS011;43277;52.672;6.984;2023-02-02T09:51:08;10.38;;;4.75;;
57433;SDS011;43277;52.672;6.984;2023-02-02T09:53:46;14.68;;;5.55;;
57433;SDS011;43277;52.672;6.984;2023-02-02T09:56:20;12.77;;;4.45;;
57433;SDS011;43277;52.672;6.984;2023-02-02T10:01:35;13.13;;;4.53;;
57433;SDS011;43277;52.672;6.984;2023-02-02T10:04:12;8.95;;;3.42;;
57433;SDS011;43277;52.672;6.984;2023-02-02T10:06:50;10.90;;;3.80;;
57433;SDS011;43277;52.672;6.984;2023-02-02T10:21:25;10.32;;;3.78;;
57433;SDS011;43277;52.672;6.984;2023-02-02T10:24:00;10.07;;;3.95;;
57433;SDS011;43277;52.672;6.984;2023-02-02T10:26:29;8.60;;;3.90;;
57433;SDS011;43277;52.672;6.984;2023-02-02T10:29:10;9.38;;;3.50;;
57433;SDS011;43277;52.672;6.984;2023-02-02T10:34:43;9.70;;;2.70;;
57433;SDS011;43277;52.672;6.984;2023-02-02T10:37:32;10.40;;;3.75;;
57433;SDS011;43277;52.672;6.984;2023-02-02T10:43:03;10.45;;;2.85;;
57433;SDS011;43277;52.672;6.984;2023-02-02T10:46:10;7.47;;;2.60;;
57433;SDS011;43277;52.672;6.984;2023-02-02T10:48:40;9.07;;;2.50;;
57433;SDS011;43277;52.672;6.984;2023-02-02T10:51:11;10.02;;;2.95;;
57433;SDS011;43277;52.672;6.984;2023-02-02T10:53:43;9.13;;;3.05;;
57433;SDS011;43277;52.672;6.984;2023-02-02T10:56:17;9.77;;;2.90;;
57433;SDS011;43277;52.672;6.984;2023-02-02T10:58:49;9.48;;;2.45;;
57433;SDS011;43277;52.672;6.984;2023-02-02T11:01:38;10.68;;;3.40;;
57433;SDS011;43277;52.672;6.984;2023-02-02T11:04:04;9.90;;;2.75;;
57433;SDS011;43277;52.672;6.984;2023-02-02T11:06:48;10.27;;;3.22;;
57433;SDS011;43277;52.672;6.984;2023-02-02T11:09:23;8.27;;;2.63;;
57433;SDS011;43277;52.672;6.984;2023-02-02T11:12:04;9.25;;;3.00;;
57433;SDS011;43277;52.672;6.984;2023-02-02T11:17:41;8.68;;;2.97;;
57433;SDS011;43277;52.672;6.984;2023-02-02T11:20:21;11.00;;;3.28;;
57433;SDS011;43277;52.672;6.984;2023-02-02T11:23:01;9.75;;;2.53;;
57433;SDS011;43277;52.672;6.984;2023-02-02T11:25:30;9.80;;;3.22;;
57433;SDS011;43277;52.672;6.984;2023-02-02T11:27:59;10.05;;;2.80;;
57433;SDS011;43277;52.672;6.984;2023-02-02T11:30:46;10.35;;;3.40;;
57433;SDS011;43277;52.672;6.984;2023-02-02T11:33:23;10.05;;;3.78;;
57433;SDS011;43277;52.672;6.984;2023-02-02T11:35:52;14.48;;;7.30;;
57433;SDS011;43277;52.672;6.984;2023-02-02T11:38:26;11.27;;;4.90;;
57433;SDS011;43277;52.672;6.984;2023-02-02T11:40:53;10.25;;;3.03;;
57433;SDS011;43277;52.672;6.984;2023-02-02T11:45:53;9.60;;;2.88;;
57433;SDS011;43277;52.672;6.984;2023-02-02T11:48:25;10.77;;;3.10;;
57433;SDS011;43277;52.672;6.984;2023-02-02T11:50:56;9.13;;;2.67;;
57433;SDS011;43277;52.672;6.984;2023-02-02T11:53:33;9.30;;;2.88;;
57433;SDS011;43277;52.672;6.984;2023-02-02T11:56:09;10.43;;;2.72;;
57433;SDS011;43277;52.672;6.984;2023-02-02T11:58:52;11.77;;;3.22;;
57433;SDS011;43277;52.672;6.984;2023-02-02T12:01:34;10.07;;;2.42;;
57433;SDS011;43277;52.672;6.984;2023-02-02T12:04:24;9.85;;;2.75;;
57433;SDS011;43277;52.672;6.984;2023-02-02T12:06:50;10.63;;;3.22;;
57433;SDS011;43277;52.672;6.984;2023-02-02T12:09:16;8.32;;;2.40;;
57433;SDS011;43277;52.672;6.984;2023-02-02T12:14:41;11.13;;;2.80;;
57433;SDS011;43277;52.672;6.984;2023-02-02T12:34:40;13.23;;;3.63;;
57433;SDS011;43277;52.672;6.984;2023-02-02T12:37:39;12.73;;;3.45;;
57433;SDS011;43277;52.672;6.984;2023-02-02T12:43:41;9.52;;;3.53;;
57433;SDS011;43277;52.672;6.984;2023-02-02T12:51:13;12.30;;;3.83;;
57433;SDS011;43277;52.672;6.984;2023-02-02T12:57:11;10.65;;;3.47;;
57433;SDS011;43277;52.672;6.984;2023-02-02T12:59:56;15.38;;;3.60;;
57433;SDS011;43277;52.672;6.984;2023-02-02T13:08:04;12.75;;;3.35;;
57433;SDS011;43277;52.672;6.984;2023-02-02T13:10:37;15.43;;;3.53;;
57433;SDS011;43277;52.672;6.984;2023-02-02T13:13:16;10.30;;;3.20;;
57433;SDS011;43277;52.672;6.984;2023-02-02T13:15:47;12.02;;;3.40;;
57433;SDS011;43277;52.672;6.984;2023-02-02T13:18:22;13.00;;;3.88;;
57433;SDS011;43277;52.672;6.984;2023-02-02T13:20:52;13.45;;;3.10;;
57433;SDS011;43277;52.672;6.984;2023-02-02T13:23:32;13.23;;;3.22;;
57433;SDS011;43277;52.672;6.984;2023-02-02T13:26:17;13.30;;;3.08;;
57433;SDS011;43277;52.672;6.984;2023-02-02T13:31:23;15.75;;;3.55;;
57433;SDS011;43277;52.672;6.984;2023-02-02T13:33:57;12.68;;;3.55;;
57433;SDS011;43277;52.672;6.984;2023-02-02T13:36:30;12.77;;;3.22;;
57433;SDS011;43277;52.672;6.984;2023-02-02T13:39:02;13.50;;;2.90;;
57433;SDS011;43277;52.672;6.984;2023-02-02T13:41:38;10.82;;;2.92;;
57433;SDS011;43277;52.672;6.984;2023-02-02T13:44:06;15.23;;;3.53;;
57433;SDS011;43277;52.672;6.984;2023-02-02T13:49:31;14.75;;;3.70;;
57433;SDS011;43277;52.672;6.984;2023-02-02T13:54:48;14.98;;;4.18;;
57433;SDS011;43277;52.672;6.984;2023-02-02T14:00:55;17.38;;;5.88;;
57433;SDS011;43277;52.672;6.984;2023-02-02T14:03:05;19.90;;;6.90;;
57433;SDS011;43277;52.672;6.984;2023-02-02T14:05:42;15.20;;;5.60;;
57433;SDS011;43277;52.672;6.984;2023-02-02T14:08:25;13.85;;;5.97;;
57433;SDS011;43277;52.672;6.984;2023-02-02T14:13:18;18.70;;;6.15;;
57433;SDS011;43277;52.672;6.984;2023-02-02T14:16:07;17.92;;;5.93;;
57433;SDS011;43277;52.672;6.984;2023-02-02T14:18:59;16.35;;;5.15;;
57433;SDS011;43277;52.672;6.984;2023-02-02T14:23:58;20.55;;;6.55;;
57433;SDS011;43277;52.672;6.984;2023-02-02T14:31:54;21.30;;;7.13;;
57433;SDS011;43277;52.672;6.984;2023-02-02T14:34:25;18.88;;;7.03;;
57433;SDS011;43277;52.672;6.984;2023-02-02T14:46:37;16.67;;;8.80;;
57433;SDS011;43277;52.672;6.984;2023-02-02T14:48:40;20.02;;;9.95;;
57433;SDS011;43277;52.672;6.984;2023-02-02T14:51:15;21.00;;;11.60;;
57433;SDS011;43277;52.672;6.984;2023-02-02T14:56:32;22.02;;;12.57;;
57433;SDS011;43277;52.672;6.984;2023-02-02T14:59:04;20.58;;;12.07;;
57433;SDS011;43277;52.672;6.984;2023-02-02T15:01:32;19.50;;;9.25;;
57433;SDS011;43277;52.672;6.984;2023-02-02T15:06:42;22.30;;;10.02;;
57433;SDS011;43277;52.672;6.984;2023-02-02T15:14:49;20.10;;;9.88;;
57433;SDS011;43277;52.672;6.984;2023-02-02T15:22:35;19.27;;;10.48;;
57433;SDS011;43277;52.672;6.984;2023-02-02T15:30:50;18.98;;;10.50;;
57433;SDS011;43277;52.672;6.984;2023-02-02T15:33:30;15.18;;;8.70;;
57433;SDS011;43277;52.672;6.984;2023-02-02T15:36:04;16.98;;;9.88;;
57433;SDS011;43277;52.672;6.984;2023-02-02T15:38:36;17.70;;;8.90;;
57433;SDS011;43277;52.672;6.984;2023-02-02T15:41:04;16.83;;;9.95;;
57433;SDS011;43277;52.672;6.984;2023-02-02T15:43:40;18.38;;;9.48;;
57433;SDS011;43277;52.672;6.984;2023-02-02T15:46:09;18.17;;;9.20;;
57433;SDS011;43277;52.672;6.984;2023-02-02T15:48:38;17.95;;;10.13;;
57433;SDS011;43277;52.672;6.984;2023-02-02T15:51:05;22.35;;;10.75;;
57433;SDS011;43277;52.672;6.984;2023-02-02T15:56:25;21.10;;;10.50;;
57433;SDS011;43277;52.672;6.984;2023-02-02T15:58:56;24.27;;;12.40;;
57433;SDS011;43277;52.672;6.984;2023-02-02T16:01:28;29.55;;;14.43;;
57433;SDS011;43277;52.672;6.984;2023-02-02T16:06:42;28.02;;;12.63;;
57433;SDS011;43277;52.672;6.984;2023-02-02T16:09:16;30.48;;;14.40;;
57433;SDS011;43277;52.672;6.984;2023-02-02T16:11:48;30.73;;;14.25;;
57433;SDS011;43277;52.672;6.984;2023-02-02T16:14:14;35.03;;;15.32;;
57433;SDS011;43277;52.672;6.984;2023-02-02T16:16:44;32.28;;;13.18;;
57433;SDS011;43277;52.672;6.984;2023-02-02T16:19:12;36.72;;;15.25;;
57433;SDS011;43277;52.672;6.984;2023-02-02T16:21:42;37.33;;;17.13;;
57433;SDS011;43277;52.672;6.984;2023-02-02T16:24:13;34.90;;;15.60;;
57433;SDS011;43277;52.672;6.984;2023-02-02T16:26:42;32.17;;;14.23;;
57433;SDS011;43277;52.672;6.984;2023-02-02T16:29:12;37.35;;;15.88;;
57433;SDS011;43277;52.672;6.984;2023-02-02T16:31:42;35.60;;;16.83;;
57433;SDS011;43277;52.672;6.984;2023-02-02T16:34:18;32.30;;;14.83;;
57433;SDS011;43277;52.672;6.984;2023-02-02T16:39:46;43.88;;;18.98;;
57433;SDS011;43277;52.672;6.984;2023-02-02T16:42:28;34.45;;;16.35;;
57433;SDS011;43277;52.672;6.984;2023-02-02T16:44:56;33.83;;;16.85;;
57433;SDS011;43277;52.672;6.984;2023-02-02T16:52:52;27.90;;;15.65;;
57433;SDS011;43277;52.672;6.984;2023-02-02T16:55:23;31.92;;;18.45;;
57433;SDS011;43277;52.672;6.984;2023-02-02T16:57:53;31.27;;;16.92;;
57433;SDS011;43277;52.672;6.984;2023-02-02T17:00:19;30.10;;;15.43;;
57433;SDS011;43277;52.672;6.984;2023-02-02T17:02:49;22.60;;;14.40;;
57433;SDS011;43277;52.672;6.984;2023-02-02T17:08:03;23.05;;;15.05;;
57433;SDS011;43277;52.672;6.984;2023-02-02T17:13:32;24.05;;;15.60;;
57433;SDS011;43277;52.672;6.984;2023-02-02T17:16:00;20.15;;;14.65;;
57433;SDS011;43277;52.672;6.984;2023-02-02T17:18:26;17.95;;;13.63;;
57433;SDS011;43277;52.672;6.984;2023-02-02T17:20:53;26.38;;;17.95;;
57433;SDS011;43277;52.672;6.984;2023-02-02T17:23:22;19.75;;;15.98;;
57433;SDS011;43277;52.672;6.984;2023-02-02T17:25:49;19.67;;;14.82;;
57433;SDS011;43277;52.672;6.984;2023-02-02T17:28:19;19.60;;;15.20;;
57433;SDS011;43277;52.672;6.984;2023-02-02T17:30:47;22.35;;;16.40;;
57433;SDS011;43277;52.672;6.984;2023-02-02T17:33:20;14.93;;;12.23;;
57433;SDS011;43277;52.672;6.984;2023-02-02T17:35:46;24.15;;;17.70;;
57433;SDS011;43277;52.672;6.984;2023-02-02T17:38:14;16.55;;;14.85;;
57433;SDS011;43277;52.672;6.984;2023-02-02T17:40:41;16.85;;;14.32;;
57433;SDS011;43277;52.672;6.984;2023-02-02T17:43:08;17.45;;;14.32;;